Kensal, North Dakota
Current Conditions -  °F | °C
As of 5:55 PM on Friday 31 Oct 2014 (Local Time) from K46D Reporting Station
Clear Clear  
Wind Chill: 25°   Ceiling: Unl
Heat Index: 36°   Visibility: 10mi
Dew Point: 16°   Wind: 20mph
Humidity: 44%   Direction: 160°SSE
Pressure: 30.31"   Gusts: 29mph
Location:  47.3°N, 98.73°W
Report Text: K46D 312255Z AUTO 16017G25KT 10SM CLR 02/M09 A3031 RMK AO2
Loading
Personal Weather Stations






























Interactive Weather Map
Tropical Storm Tracking
New forecast layout! Learn more

10-Day Weather Forecast

Advertisements
Track Severe Weather on mobile